sensor_id;sensor_type;location;lat;lon;timestamp;P1;durP1;ratioP1;P2;durP2;ratioP2
64826;SDS011;51265;53.972;12.286;2022-09-09T00:01:28;32.70;;;19.38;;
64826;SDS011;51265;53.972;12.286;2022-09-09T00:06:50;34.13;;;17.70;;
64826;SDS011;51265;53.972;12.286;2022-09-09T00:09:28;38.35;;;18.95;;
64826;SDS011;51265;53.972;12.286;2022-09-09T00:12:12;34.55;;;18.38;;
64826;SDS011;51265;53.972;12.286;2022-09-09T00:14:56;28.52;;;17.50;;
64826;SDS011;51265;53.972;12.286;2022-09-09T00:20:33;30.20;;;17.77;;
64826;SDS011;51265;53.972;12.286;2022-09-09T00:26:13;29.60;;;17.70;;
64826;SDS011;51265;53.972;12.286;2022-09-09T00:28:53;32.38;;;18.80;;
64826;SDS011;51265;53.972;12.286;2022-09-09T00:31:26;30.27;;;17.83;;
64826;SDS011;51265;53.972;12.286;2022-09-09T00:33:55;38.90;;;20.10;;
64826;SDS011;51265;53.972;12.286;2022-09-09T00:36:28;52.25;;;20.52;;
64826;SDS011;51265;53.972;12.286;2022-09-09T00:39:02;38.25;;;19.50;;
64826;SDS011;51265;53.972;12.286;2022-09-09T00:44:03;31.30;;;18.60;;
64826;SDS011;51265;53.972;12.286;2022-09-09T00:52:16;31.95;;;17.10;;
64826;SDS011;51265;53.972;12.286;2022-09-09T00:54:57;35.83;;;18.48;;
64826;SDS011;51265;53.972;12.286;2022-09-09T01:07:56;40.78;;;19.70;;
64826;SDS011;51265;53.972;12.286;2022-09-09T01:10:27;38.92;;;18.90;;
64826;SDS011;51265;53.972;12.286;2022-09-09T01:13:05;38.83;;;20.13;;
64826;SDS011;51265;53.972;12.286;2022-09-09T01:15:39;33.83;;;18.30;;
64826;SDS011;51265;53.972;12.286;2022-09-09T01:18:10;32.60;;;17.75;;
64826;SDS011;51265;53.972;12.286;2022-09-09T01:29:11;38.28;;;19.05;;
64826;SDS011;51265;53.972;12.286;2022-09-09T01:31:42;43.25;;;19.77;;
64826;SDS011;51265;53.972;12.286;2022-09-09T01:34:18;34.30;;;18.58;;
64826;SDS011;51265;53.972;12.286;2022-09-09T01:39:36;39.50;;;17.83;;
64826;SDS011;51265;53.972;12.286;2022-09-09T01:42:09;41.13;;;18.90;;
64826;SDS011;51265;53.972;12.286;2022-09-09T01:44:37;33.83;;;17.90;;
64826;SDS011;51265;53.972;12.286;2022-09-09T01:47:05;41.30;;;18.23;;
64826;SDS011;51265;53.972;12.286;2022-09-09T01:49:32;37.88;;;18.05;;
64826;SDS011;51265;53.972;12.286;2022-09-09T01:52:04;37.10;;;18.25;;
64826;SDS011;51265;53.972;12.286;2022-09-09T01:54:34;29.02;;;16.48;;
64826;SDS011;51265;53.972;12.286;2022-09-09T01:57:27;49.33;;;20.30;;
64826;SDS011;51265;53.972;12.286;2022-09-09T02:00:07;24.75;;;15.68;;
64826;SDS011;51265;53.972;12.286;2022-09-09T02:08:26;43.78;;;20.15;;
64826;SDS011;51265;53.972;12.286;2022-09-09T02:11:07;34.45;;;18.27;;
64826;SDS011;51265;53.972;12.286;2022-09-09T02:14:00;54.15;;;21.75;;
64826;SDS011;51265;53.972;12.286;2022-09-09T02:21:51;44.03;;;19.92;;
64826;SDS011;51265;53.972;12.286;2022-09-09T02:24:20;46.05;;;20.27;;
64826;SDS011;51265;53.972;12.286;2022-09-09T02:26:55;51.03;;;21.27;;
64826;SDS011;51265;53.972;12.286;2022-09-09T02:29:26;35.72;;;18.83;;
64826;SDS011;51265;53.972;12.286;2022-09-09T02:31:57;48.40;;;21.25;;
64826;SDS011;51265;53.972;12.286;2022-09-09T02:34:32;67.10;;;23.20;;
64826;SDS011;51265;53.972;12.286;2022-09-09T02:37:01;32.97;;;17.60;;
64826;SDS011;51265;53.972;12.286;2022-09-09T02:39:29;36.72;;;19.15;;
64826;SDS011;51265;53.972;12.286;2022-09-09T02:41:55;45.03;;;20.45;;
64826;SDS011;51265;53.972;12.286;2022-09-09T02:49:42;51.15;;;21.10;;
64826;SDS011;51265;53.972;12.286;2022-09-09T02:52:37;42.47;;;18.70;;
64826;SDS011;51265;53.972;12.286;2022-09-09T02:55:13;58.65;;;22.92;;
64826;SDS011;51265;53.972;12.286;2022-09-09T02:57:51;61.25;;;22.92;;
64826;SDS011;51265;53.972;12.286;2022-09-09T03:00:24;56.75;;;22.20;;
64826;SDS011;51265;53.972;12.286;2022-09-09T03:02:57;34.53;;;18.15;;
64826;SDS011;51265;53.972;12.286;2022-09-09T03:05:22;46.83;;;21.52;;
64826;SDS011;51265;53.972;12.286;2022-09-09T03:07:49;55.20;;;20.92;;
64826;SDS011;51265;53.972;12.286;2022-09-09T03:10:17;55.42;;;21.05;;
64826;SDS011;51265;53.972;12.286;2022-09-09T03:12:43;56.83;;;22.85;;
64826;SDS011;51265;53.972;12.286;2022-09-09T03:15:10;50.97;;;21.50;;
64826;SDS011;51265;53.972;12.286;2022-09-09T03:17:38;62.83;;;24.00;;
64826;SDS011;51265;53.972;12.286;2022-09-09T03:20:04;51.90;;;22.83;;
64826;SDS011;51265;53.972;12.286;2022-09-09T03:22:30;61.28;;;23.48;;
64826;SDS011;51265;53.972;12.286;2022-09-09T03:24:58;62.80;;;24.02;;
64826;SDS011;51265;53.972;12.286;2022-09-09T03:27:24;70.40;;;24.95;;
64826;SDS011;51265;53.972;12.286;2022-09-09T03:29:52;81.70;;;26.77;;
64826;SDS011;51265;53.972;12.286;2022-09-09T03:32:24;75.43;;;26.02;;
64826;SDS011;51265;53.972;12.286;2022-09-09T03:34:52;67.90;;;25.30;;
64826;SDS011;51265;53.972;12.286;2022-09-09T03:37:19;44.28;;;20.92;;
64826;SDS011;51265;53.972;12.286;2022-09-09T03:39:45;68.90;;;25.20;;
64826;SDS011;51265;53.972;12.286;2022-09-09T03:42:13;61.45;;;23.75;;
64826;SDS011;51265;53.972;12.286;2022-09-09T03:44:42;44.83;;;21.77;;
64826;SDS011;51265;53.972;12.286;2022-09-09T03:47:09;69.20;;;26.13;;
64826;SDS011;51265;53.972;12.286;2022-09-09T03:49:35;67.18;;;25.35;;
64826;SDS011;51265;53.972;12.286;2022-09-09T03:52:01;63.72;;;24.80;;
64826;SDS011;51265;53.972;12.286;2022-09-09T03:54:28;71.05;;;24.48;;
64826;SDS011;51265;53.972;12.286;2022-09-09T03:56:55;49.53;;;21.42;;
64826;SDS011;51265;53.972;12.286;2022-09-09T03:59:22;62.38;;;22.77;;
64826;SDS011;51265;53.972;12.286;2022-09-09T04:01:49;45.33;;;21.27;;
64826;SDS011;51265;53.972;12.286;2022-09-09T04:04:15;56.17;;;21.60;;
64826;SDS011;51265;53.972;12.286;2022-09-09T04:06:41;55.40;;;22.48;;
64826;SDS011;51265;53.972;12.286;2022-09-09T04:09:07;46.83;;;21.63;;
64826;SDS011;51265;53.972;12.286;2022-09-09T04:11:33;51.13;;;22.23;;
64826;SDS011;51265;53.972;12.286;2022-09-09T04:13:59;96.13;;;26.30;;
64826;SDS011;51265;53.972;12.286;2022-09-09T04:16:28;53.85;;;23.30;;
64826;SDS011;51265;53.972;12.286;2022-09-09T04:18:54;45.83;;;20.92;;
64826;SDS011;51265;53.972;12.286;2022-09-09T04:21:21;61.38;;;24.15;;
64826;SDS011;51265;53.972;12.286;2022-09-09T04:23:47;59.95;;;23.67;;
64826;SDS011;51265;53.972;12.286;2022-09-09T04:26:13;83.72;;;26.10;;
64826;SDS011;51265;53.972;12.286;2022-09-09T04:28:39;76.18;;;26.30;;
64826;SDS011;51265;53.972;12.286;2022-09-09T04:31:17;65.13;;;24.83;;
64826;SDS011;51265;53.972;12.286;2022-09-09T04:33:47;70.85;;;24.90;;
64826;SDS011;51265;53.972;12.286;2022-09-09T04:36:13;61.03;;;25.25;;
64826;SDS011;51265;53.972;12.286;2022-09-09T04:38:39;95.80;;;28.80;;
64826;SDS011;51265;53.972;12.286;2022-09-09T04:41:05;59.00;;;24.15;;
64826;SDS011;51265;53.972;12.286;2022-09-09T04:43:33;60.15;;;23.27;;
64826;SDS011;51265;53.972;12.286;2022-09-09T04:46:02;95.18;;;29.17;;
64826;SDS011;51265;53.972;12.286;2022-09-09T04:48:27;80.78;;;27.33;;
64826;SDS011;51265;53.972;12.286;2022-09-09T04:50:58;78.30;;;28.48;;
64826;SDS011;51265;53.972;12.286;2022-09-09T04:53:25;58.45;;;25.52;;
64826;SDS011;51265;53.972;12.286;2022-09-09T04:58:30;98.07;;;36.33;;
64826;SDS011;51265;53.972;12.286;2022-09-09T05:01:13;98.78;;;53.75;;
64826;SDS011;51265;53.972;12.286;2022-09-09T05:03:45;128.20;;;40.80;;
64826;SDS011;51265;53.972;12.286;2022-09-09T05:06:14;129.23;;;41.30;;
64826;SDS011;51265;53.972;12.286;2022-09-09T05:08:42;107.20;;;38.75;;
64826;SDS011;51265;53.972;12.286;2022-09-09T05:11:14;106.85;;;41.25;;
64826;SDS011;51265;53.972;12.286;2022-09-09T05:13:43;94.57;;;38.17;;
64826;SDS011;51265;53.972;12.286;2022-09-09T05:16:10;104.07;;;37.83;;
64826;SDS011;51265;53.972;12.286;2022-09-09T05:18:39;86.43;;;35.05;;
64826;SDS011;51265;53.972;12.286;2022-09-09T05:21:07;156.20;;;40.45;;
64826;SDS011;51265;53.972;12.286;2022-09-09T05:23:36;70.10;;;32.60;;
64826;SDS011;51265;53.972;12.286;2022-09-09T05:26:03;78.63;;;32.63;;
64826;SDS011;51265;53.972;12.286;2022-09-09T05:28:30;90.97;;;32.83;;
64826;SDS011;51265;53.972;12.286;2022-09-09T05:30:57;86.30;;;31.08;;
64826;SDS011;51265;53.972;12.286;2022-09-09T05:33:24;96.70;;;30.75;;
64826;SDS011;51265;53.972;12.286;2022-09-09T05:35:58;76.32;;;28.45;;
64826;SDS011;51265;53.972;12.286;2022-09-09T05:38:25;95.68;;;31.33;;
64826;SDS011;51265;53.972;12.286;2022-09-09T05:40:52;121.82;;;32.95;;
64826;SDS011;51265;53.972;12.286;2022-09-09T05:43:18;90.72;;;29.40;;
64826;SDS011;51265;53.972;12.286;2022-09-09T05:45:46;93.43;;;31.55;;
64826;SDS011;51265;53.972;12.286;2022-09-09T05:48:14;85.78;;;30.98;;
64826;SDS011;51265;53.972;12.286;2022-09-09T05:50:42;78.07;;;28.88;;
64826;SDS011;51265;53.972;12.286;2022-09-09T05:53:08;82.25;;;30.40;;
64826;SDS011;51265;53.972;12.286;2022-09-09T05:55:35;78.53;;;29.77;;
64826;SDS011;51265;53.972;12.286;2022-09-09T05:58:02;66.78;;;28.80;;
64826;SDS011;51265;53.972;12.286;2022-09-09T06:00:28;74.70;;;31.00;;
64826;SDS011;51265;53.972;12.286;2022-09-09T06:02:57;69.95;;;30.52;;
64826;SDS011;51265;53.972;12.286;2022-09-09T06:05:23;70.85;;;30.00;;
64826;SDS011;51265;53.972;12.286;2022-09-09T06:07:53;63.05;;;26.92;;
64826;SDS011;51265;53.972;12.286;2022-09-09T06:10:19;58.47;;;26.20;;
64826;SDS011;51265;53.972;12.286;2022-09-09T06:12:45;58.53;;;25.85;;
64826;SDS011;51265;53.972;12.286;2022-09-09T06:15:11;53.20;;;25.48;;
64826;SDS011;51265;53.972;12.286;2022-09-09T06:17:38;60.25;;;27.27;;
64826;SDS011;51265;53.972;12.286;2022-09-09T06:20:04;57.10;;;27.25;;
64826;SDS011;51265;53.972;12.286;2022-09-09T06:22:32;51.47;;;24.90;;
64826;SDS011;51265;53.972;12.286;2022-09-09T06:24:57;53.95;;;25.17;;
64826;SDS011;51265;53.972;12.286;2022-09-09T06:27:23;53.33;;;25.42;;
64826;SDS011;51265;53.972;12.286;2022-09-09T06:29:49;51.55;;;25.70;;
64826;SDS011;51265;53.972;12.286;2022-09-09T06:32:16;44.05;;;24.58;;
64826;SDS011;51265;53.972;12.286;2022-09-09T06:34:43;50.08;;;25.48;;
64826;SDS011;51265;53.972;12.286;2022-09-09T06:37:10;45.88;;;27.08;;
64826;SDS011;51265;53.972;12.286;2022-09-09T06:39:42;65.65;;;41.15;;
64826;SDS011;51265;53.972;12.286;2022-09-09T06:42:08;41.83;;;23.63;;
64826;SDS011;51265;53.972;12.286;2022-09-09T06:44:49;36.35;;;22.30;;
64826;SDS011;51265;53.972;12.286;2022-09-09T06:47:22;38.45;;;22.73;;
64826;SDS011;51265;53.972;12.286;2022-09-09T06:49:50;35.92;;;22.13;;
64826;SDS011;51265;53.972;12.286;2022-09-09T06:52:16;35.65;;;22.30;;
64826;SDS011;51265;53.972;12.286;2022-09-09T06:54:43;36.97;;;23.35;;
64826;SDS011;51265;53.972;12.286;2022-09-09T06:57:14;29.73;;;20.73;;
64826;SDS011;51265;53.972;12.286;2022-09-09T06:59:40;34.30;;;21.25;;
64826;SDS011;51265;53.972;12.286;2022-09-09T07:02:07;31.83;;;21.70;;
64826;SDS011;51265;53.972;12.286;2022-09-09T07:04:33;30.17;;;20.42;;
64826;SDS011;51265;53.972;12.286;2022-09-09T07:06:59;33.42;;;20.52;;
64826;SDS011;51265;53.972;12.286;2022-09-09T07:09:25;29.25;;;19.27;;
64826;SDS011;51265;53.972;12.286;2022-09-09T07:11:53;26.98;;;19.10;;
64826;SDS011;51265;53.972;12.286;2022-09-09T07:14:20;28.65;;;19.20;;
64826;SDS011;51265;53.972;12.286;2022-09-09T07:16:53;24.23;;;13.43;;
64826;SDS011;51265;53.972;12.286;2022-09-09T07:19:19;26.23;;;18.63;;
64826;SDS011;51265;53.972;12.286;2022-09-09T07:21:48;26.90;;;18.98;;
64826;SDS011;51265;53.972;12.286;2022-09-09T07:24:17;26.00;;;19.60;;
64826;SDS011;51265;53.972;12.286;2022-09-09T07:26:43;31.67;;;20.35;;
64826;SDS011;51265;53.972;12.286;2022-09-09T07:29:10;26.02;;;19.65;;
64826;SDS011;51265;53.972;12.286;2022-09-09T07:31:39;27.85;;;19.63;;
64826;SDS011;51265;53.972;12.286;2022-09-09T07:34:09;27.63;;;19.77;;
64826;SDS011;51265;53.972;12.286;2022-09-09T07:36:36;29.58;;;20.05;;
64826;SDS011;51265;53.972;12.286;2022-09-09T07:39:07;26.75;;;18.35;;
64826;SDS011;51265;53.972;12.286;2022-09-09T07:41:36;30.20;;;20.45;;
64826;SDS011;51265;53.972;12.286;2022-09-09T07:44:05;39.33;;;26.95;;
64826;SDS011;51265;53.972;12.286;2022-09-09T07:46:33;26.55;;;19.98;;
64826;SDS011;51265;53.972;12.286;2022-09-09T07:49:00;29.98;;;20.33;;
64826;SDS011;51265;53.972;12.286;2022-09-09T07:51:31;30.10;;;19.88;;
64826;SDS011;51265;53.972;12.286;2022-09-09T07:53:59;25.20;;;19.27;;
64826;SDS011;51265;53.972;12.286;2022-09-09T07:56:29;22.90;;;17.17;;
64826;SDS011;51265;53.972;12.286;2022-09-09T07:58:57;24.00;;;17.75;;
64826;SDS011;51265;53.972;12.286;2022-09-09T08:01:26;25.83;;;18.25;;
64826;SDS011;51265;53.972;12.286;2022-09-09T08:06:25;26.08;;;18.13;;
64826;SDS011;51265;53.972;12.286;2022-09-09T08:08:53;23.35;;;17.98;;
64826;SDS011;51265;53.972;12.286;2022-09-09T08:11:21;24.35;;;17.83;;
64826;SDS011;51265;53.972;12.286;2022-09-09T08:13:49;22.25;;;16.25;;
64826;SDS011;51265;53.972;12.286;2022-09-09T08:16:17;24.88;;;18.67;;
64826;SDS011;51265;53.972;12.286;2022-09-09T08:18:48;25.23;;;17.90;;
64826;SDS011;51265;53.972;12.286;2022-09-09T08:21:16;21.23;;;16.33;;
64826;SDS011;51265;53.972;12.286;2022-09-09T08:23:47;22.90;;;18.63;;
64826;SDS011;51265;53.972;12.286;2022-09-09T08:26:18;26.00;;;18.65;;
64826;SDS011;51265;53.972;12.286;2022-09-09T08:28:48;22.23;;;17.45;;
64826;SDS011;51265;53.972;12.286;2022-09-09T08:33:51;19.00;;;16.40;;
64826;SDS011;51265;53.972;12.286;2022-09-09T08:36:19;18.88;;;15.13;;
64826;SDS011;51265;53.972;12.286;2022-09-09T08:38:47;21.80;;;15.98;;
64826;SDS011;51265;53.972;12.286;2022-09-09T08:50:11;17.17;;;12.93;;
64826;SDS011;51265;53.972;12.286;2022-09-09T08:55:39;17.42;;;12.60;;
64826;SDS011;51265;53.972;12.286;2022-09-09T08:58:18;18.77;;;12.80;;
64826;SDS011;51265;53.972;12.286;2022-09-09T09:04:21;15.77;;;12.45;;
64826;SDS011;51265;53.972;12.286;2022-09-09T09:06:58;13.35;;;11.85;;
64826;SDS011;51265;53.972;12.286;2022-09-09T09:12:40;14.88;;;11.63;;
64826;SDS011;51265;53.972;12.286;2022-09-09T09:15:33;12.88;;;11.07;;
64826;SDS011;51265;53.972;12.286;2022-09-09T09:18:04;15.73;;;10.90;;
64826;SDS011;51265;53.972;12.286;2022-09-09T09:23:22;13.77;;;11.10;;
64826;SDS011;51265;53.972;12.286;2022-09-09T09:25:56;13.80;;;11.05;;
64826;SDS011;51265;53.972;12.286;2022-09-09T09:28:27;12.48;;;11.18;;
64826;SDS011;51265;53.972;12.286;2022-09-09T09:31:03;14.88;;;11.55;;
64826;SDS011;51265;53.972;12.286;2022-09-09T09:36:12;10.77;;;9.32;;
64826;SDS011;51265;53.972;12.286;2022-09-09T09:38:58;12.23;;;9.80;;
64826;SDS011;51265;53.972;12.286;2022-09-09T09:41:34;11.65;;;10.00;;
64826;SDS011;51265;53.972;12.286;2022-09-09T09:44:04;13.50;;;10.05;;
64826;SDS011;51265;53.972;12.286;2022-09-09T09:46:45;10.48;;;8.98;;
64826;SDS011;51265;53.972;12.286;2022-09-09T09:49:12;10.25;;;8.80;;
64826;SDS011;51265;53.972;12.286;2022-09-09T09:51:39;8.52;;;7.63;;
64826;SDS011;51265;53.972;12.286;2022-09-09T09:56:49;10.77;;;9.35;;
64826;SDS011;51265;53.972;12.286;2022-09-09T09:59:23;12.05;;;9.80;;
64826;SDS011;51265;53.972;12.286;2022-09-09T10:02:19;13.55;;;9.13;;
64826;SDS011;51265;53.972;12.286;2022-09-09T10:05:00;9.90;;;7.57;;
64826;SDS011;51265;53.972;12.286;2022-09-09T10:08:05;9.77;;;8.10;;
64826;SDS011;51265;53.972;12.286;2022-09-09T10:13:11;12.37;;;9.60;;
64826;SDS011;51265;53.972;12.286;2022-09-09T10:16:10;8.82;;;7.15;;
64826;SDS011;51265;53.972;12.286;2022-09-09T10:18:47;6.95;;;6.25;;
64826;SDS011;51265;53.972;12.286;2022-09-09T10:32:46;11.15;;;7.32;;
64826;SDS011;51265;53.972;12.286;2022-09-09T10:35:23;10.85;;;8.85;;
64826;SDS011;51265;53.972;12.286;2022-09-09T10:43:24;8.55;;;7.10;;
64826;SDS011;51265;53.972;12.286;2022-09-09T10:46:01;9.93;;;7.32;;
64826;SDS011;51265;53.972;12.286;2022-09-09T10:48:42;9.63;;;6.57;;
64826;SDS011;51265;53.972;12.286;2022-09-09T10:56:52;9.23;;;6.32;;
64826;SDS011;51265;53.972;12.286;2022-09-09T10:59:28;9.98;;;5.95;;
64826;SDS011;51265;53.972;12.286;2022-09-09T11:02:01;5.78;;;4.57;;
64826;SDS011;51265;53.972;12.286;2022-09-09T11:04:40;8.23;;;4.55;;
64826;SDS011;51265;53.972;12.286;2022-09-09T11:07:12;6.43;;;4.78;;
64826;SDS011;51265;53.972;12.286;2022-09-09T11:09:49;6.20;;;5.22;;
64826;SDS011;51265;53.972;12.286;2022-09-09T11:12:21;6.60;;;5.20;;
64826;SDS011;51265;53.972;12.286;2022-09-09T11:15:14;6.75;;;4.68;;
64826;SDS011;51265;53.972;12.286;2022-09-09T11:17:44;6.30;;;4.47;;
64826;SDS011;51265;53.972;12.286;2022-09-09T11:20:14;6.32;;;3.67;;
64826;SDS011;51265;53.972;12.286;2022-09-09T11:22:58;5.13;;;2.90;;
64826;SDS011;51265;53.972;12.286;2022-09-09T11:26:03;5.20;;;2.90;;
64826;SDS011;51265;53.972;12.286;2022-09-09T11:28:37;5.35;;;2.78;;
64826;SDS011;51265;53.972;12.286;2022-09-09T11:31:27;5.13;;;2.60;;
64826;SDS011;51265;53.972;12.286;2022-09-09T11:34:08;4.55;;;2.20;;
64826;SDS011;51265;53.972;12.286;2022-09-09T11:40:09;2.97;;;1.60;;
64826;SDS011;51265;53.972;12.286;2022-09-09T11:42:39;4.32;;;1.65;;
64826;SDS011;51265;53.972;12.286;2022-09-09T11:45:10;4.22;;;1.77;;
64826;SDS011;51265;53.972;12.286;2022-09-09T11:48:22;4.15;;;1.50;;
64826;SDS011;51265;53.972;12.286;2022-09-09T11:51:04;4.63;;;1.35;;
64826;SDS011;51265;53.972;12.286;2022-09-09T11:58:56;2.15;;;1.17;;
64826;SDS011;51265;53.972;12.286;2022-09-09T12:01:27;2.40;;;1.58;;
64826;SDS011;51265;53.972;12.286;2022-09-09T12:04:01;5.85;;;1.48;;
64826;SDS011;51265;53.972;12.286;2022-09-09T12:06:54;3.35;;;1.58;;
64826;SDS011;51265;53.972;12.286;2022-09-09T12:09:29;3.72;;;1.30;;
64826;SDS011;51265;53.972;12.286;2022-09-09T12:12:07;3.47;;;1.15;;
64826;SDS011;51265;53.972;12.286;2022-09-09T12:17:30;4.03;;;1.20;;
64826;SDS011;51265;53.972;12.286;2022-09-09T12:20:01;2.50;;;1.50;;
64826;SDS011;51265;53.972;12.286;2022-09-09T12:22:37;10.15;;;7.40;;
64826;SDS011;51265;53.972;12.286;2022-09-09T12:25:35;4.55;;;1.73;;
64826;SDS011;51265;53.972;12.286;2022-09-09T12:28:05;4.32;;;1.40;;
64826;SDS011;51265;53.972;12.286;2022-09-09T12:30:49;4.20;;;1.30;;
64826;SDS011;51265;53.972;12.286;2022-09-09T12:33:24;2.40;;;0.80;;
64826;SDS011;51265;53.972;12.286;2022-09-09T12:35:52;3.90;;;1.30;;
64826;SDS011;51265;53.972;12.286;2022-09-09T12:38:27;3.07;;;0.93;;
64826;SDS011;51265;53.972;12.286;2022-09-09T12:41:02;2.75;;;0.85;;
64826;SDS011;51265;53.972;12.286;2022-09-09T12:43:28;2.47;;;1.13;;
64826;SDS011;51265;53.972;12.286;2022-09-09T12:45:59;2.75;;;0.80;;
64826;SDS011;51265;53.972;12.286;2022-09-09T12:48:34;3.97;;;1.08;;
64826;SDS011;51265;53.972;12.286;2022-09-09T12:51:03;3.17;;;1.08;;
64826;SDS011;51265;53.972;12.286;2022-09-09T12:53:36;5.05;;;1.30;;
64826;SDS011;51265;53.972;12.286;2022-09-09T12:56:06;3.08;;;1.17;;
64826;SDS011;51265;53.972;12.286;2022-09-09T12:58:35;2.65;;;1.13;;
64826;SDS011;51265;53.972;12.286;2022-09-09T13:01:03;4.10;;;1.40;;
64826;SDS011;51265;53.972;12.286;2022-09-09T13:03:31;9.18;;;1.35;;
64826;SDS011;51265;53.972;12.286;2022-09-09T13:06:09;5.40;;;1.42;;
64826;SDS011;51265;53.972;12.286;2022-09-09T13:08:37;5.38;;;3.47;;
64826;SDS011;51265;53.972;12.286;2022-09-09T13:11:06;8.65;;;5.20;;
64826;SDS011;51265;53.972;12.286;2022-09-09T13:13:38;6.35;;;4.60;;
64826;SDS011;51265;53.972;12.286;2022-09-09T13:16:07;4.53;;;2.15;;
64826;SDS011;51265;53.972;12.286;2022-09-09T13:18:46;4.38;;;1.90;;
64826;SDS011;51265;53.972;12.286;2022-09-09T13:21:12;4.25;;;1.65;;
64826;SDS011;51265;53.972;12.286;2022-09-09T13:23:39;4.78;;;1.40;;
64826;SDS011;51265;53.972;12.286;2022-09-09T13:26:06;3.25;;;1.60;;
64826;SDS011;51265;53.972;12.286;2022-09-09T13:28:50;3.55;;;1.70;;
64826;SDS011;51265;53.972;12.286;2022-09-09T13:31:49;3.38;;;1.52;;
64826;SDS011;51265;53.972;12.286;2022-09-09T13:34:25;2.78;;;1.67;;
64826;SDS011;51265;53.972;12.286;2022-09-09T13:37:00;3.45;;;1.40;;
64826;SDS011;51265;53.972;12.286;2022-09-09T13:39:34;2.88;;;1.52;;
64826;SDS011;51265;53.972;12.286;2022-09-09T13:42:02;5.60;;;1.67;;
64826;SDS011;51265;53.972;12.286;2022-09-09T13:44:30;5.43;;;1.65;;
64826;SDS011;51265;53.972;12.286;2022-09-09T13:49:34;3.05;;;1.80;;
64826;SDS011;51265;53.972;12.286;2022-09-09T13:52:08;5.88;;;1.80;;
64826;SDS011;51265;53.972;12.286;2022-09-09T13:54:36;8.60;;;2.17;;
64826;SDS011;51265;53.972;12.286;2022-09-09T13:57:02;8.75;;;2.70;;
64826;SDS011;51265;53.972;12.286;2022-09-09T13:59:29;6.15;;;2.10;;
64826;SDS011;51265;53.972;12.286;2022-09-09T14:01:55;6.22;;;2.10;;
64826;SDS011;51265;53.972;12.286;2022-09-09T14:04:22;6.05;;;2.13;;
64826;SDS011;51265;53.972;12.286;2022-09-09T14:06:49;7.43;;;2.03;;
64826;SDS011;51265;53.972;12.286;2022-09-09T14:09:16;5.97;;;2.20;;
64826;SDS011;51265;53.972;12.286;2022-09-09T14:11:43;3.40;;;1.83;;
64826;SDS011;51265;53.972;12.286;2022-09-09T14:14:10;4.40;;;2.03;;
64826;SDS011;51265;53.972;12.286;2022-09-09T14:16:36;7.43;;;5.57;;
64826;SDS011;51265;53.972;12.286;2022-09-09T14:19:03;16.77;;;13.02;;
64826;SDS011;51265;53.972;12.286;2022-09-09T14:21:29;5.35;;;2.95;;
64826;SDS011;51265;53.972;12.286;2022-09-09T14:23:55;6.68;;;2.60;;
64826;SDS011;51265;53.972;12.286;2022-09-09T14:26:23;4.25;;;1.80;;
64826;SDS011;51265;53.972;12.286;2022-09-09T14:28:50;2.85;;;1.58;;
64826;SDS011;51265;53.972;12.286;2022-09-09T14:31:17;3.30;;;1.63;;
64826;SDS011;51265;53.972;12.286;2022-09-09T14:33:43;6.57;;;1.80;;
64826;SDS011;51265;53.972;12.286;2022-09-09T14:36:10;3.15;;;1.50;;
64826;SDS011;51265;53.972;12.286;2022-09-09T14:38:37;4.30;;;1.52;;
64826;SDS011;51265;53.972;12.286;2022-09-09T14:41:11;5.18;;;1.55;;
64826;SDS011;51265;53.972;12.286;2022-09-09T14:43:38;3.63;;;1.52;;
64826;SDS011;51265;53.972;12.286;2022-09-09T14:46:08;4.50;;;1.48;;
64826;SDS011;51265;53.972;12.286;2022-09-09T14:48:35;5.20;;;1.40;;
64826;SDS011;51265;53.972;12.286;2022-09-09T14:51:20;5.88;;;1.48;;
64826;SDS011;51265;53.972;12.286;2022-09-09T14:53:52;4.20;;;1.40;;
64826;SDS011;51265;53.972;12.286;2022-09-09T14:56:20;2.70;;;1.10;;
64826;SDS011;51265;53.972;12.286;2022-09-09T14:58:49;4.30;;;1.50;;
64826;SDS011;51265;53.972;12.286;2022-09-09T15:01:15;2.47;;;1.48;;
64826;SDS011;51265;53.972;12.286;2022-09-09T15:03:47;4.40;;;1.30;;
64826;SDS011;51265;53.972;12.286;2022-09-09T15:06:15;3.22;;;1.65;;
64826;SDS011;51265;53.972;12.286;2022-09-09T15:08:42;3.20;;;1.20;;
64826;SDS011;51265;53.972;12.286;2022-09-09T15:11:10;3.38;;;1.50;;
64826;SDS011;51265;53.972;12.286;2022-09-09T15:13:38;2.83;;;1.40;;
64826;SDS011;51265;53.972;12.286;2022-09-09T15:16:06;3.78;;;1.17;;
64826;SDS011;51265;53.972;12.286;2022-09-09T15:18:34;5.65;;;1.25;;
64826;SDS011;51265;53.972;12.286;2022-09-09T15:21:02;6.90;;;1.60;;
64826;SDS011;51265;53.972;12.286;2022-09-09T15:23:34;3.03;;;1.23;;
64826;SDS011;51265;53.972;12.286;2022-09-09T15:26:00;4.15;;;1.20;;
64826;SDS011;51265;53.972;12.286;2022-09-09T15:28:28;3.45;;;1.25;;
64826;SDS011;51265;53.972;12.286;2022-09-09T15:30:54;9.43;;;2.90;;
64826;SDS011;51265;53.972;12.286;2022-09-09T15:33:22;5.93;;;3.20;;
64826;SDS011;51265;53.972;12.286;2022-09-09T15:35:48;7.85;;;2.65;;
64826;SDS011;51265;53.972;12.286;2022-09-09T15:38:15;2.60;;;1.42;;
64826;SDS011;51265;53.972;12.286;2022-09-09T15:40:43;4.05;;;1.42;;
64826;SDS011;51265;53.972;12.286;2022-09-09T15:43:09;3.85;;;1.45;;
64826;SDS011;51265;53.972;12.286;2022-09-09T15:45:36;3.60;;;1.40;;
64826;SDS011;51265;53.972;12.286;2022-09-09T15:48:02;2.50;;;1.00;;
64826;SDS011;51265;53.972;12.286;2022-09-09T15:50:29;5.60;;;1.48;;
64826;SDS011;51265;53.972;12.286;2022-09-09T15:52:58;2.83;;;1.27;;
64826;SDS011;51265;53.972;12.286;2022-09-09T15:55:24;4.40;;;1.35;;
64826;SDS011;51265;53.972;12.286;2022-09-09T15:57:51;5.75;;;1.90;;
64826;SDS011;51265;53.972;12.286;2022-09-09T16:00:18;4.97;;;2.10;;
64826;SDS011;51265;53.972;12.286;2022-09-09T16:02:48;4.07;;;1.67;;
64826;SDS011;51265;53.972;12.286;2022-09-09T16:05:14;4.47;;;1.90;;
64826;SDS011;51265;53.972;12.286;2022-09-09T16:07:41;3.03;;;1.27;;
64826;SDS011;51265;53.972;12.286;2022-09-09T16:10:08;4.55;;;1.40;;
64826;SDS011;51265;53.972;12.286;2022-09-09T16:12:34;4.03;;;1.42;;
64826;SDS011;51265;53.972;12.286;2022-09-09T16:15:00;4.72;;;1.35;;
64826;SDS011;51265;53.972;12.286;2022-09-09T16:17:27;5.13;;;1.40;;
64826;SDS011;51265;53.972;12.286;2022-09-09T16:19:53;6.07;;;1.40;;
64826;SDS011;51265;53.972;12.286;2022-09-09T16:22:19;4.20;;;1.33;;
64826;SDS011;51265;53.972;12.286;2022-09-09T16:24:45;4.45;;;1.38;;
64826;SDS011;51265;53.972;12.286;2022-09-09T16:27:11;2.92;;;1.33;;
64826;SDS011;51265;53.972;12.286;2022-09-09T16:29:37;3.38;;;1.63;;
64826;SDS011;51265;53.972;12.286;2022-09-09T16:32:03;4.65;;;1.70;;
64826;SDS011;51265;53.972;12.286;2022-09-09T16:34:30;5.32;;;1.90;;
64826;SDS011;51265;53.972;12.286;2022-09-09T16:36:55;3.28;;;1.58;;
64826;SDS011;51265;53.972;12.286;2022-09-09T16:39:21;2.47;;;1.30;;
64826;SDS011;51265;53.972;12.286;2022-09-09T16:41:47;4.55;;;1.08;;
64826;SDS011;51265;53.972;12.286;2022-09-09T16:44:15;2.13;;;0.93;;
64826;SDS011;51265;53.972;12.286;2022-09-09T16:46:46;1.45;;;0.63;;
64826;SDS011;51265;53.972;12.286;2022-09-09T16:49:14;2.47;;;0.70;;